sensor_id;sensor_type;location;lat;lon;timestamp;pressure;altitude;pressure_sealevel;temperature;humidity
2681;BME280;1350;42.134;24.708;2024-01-07T00:00:32;98160.38;;;6.48;100.00
2681;BME280;1350;42.134;24.708;2024-01-07T00:02:59;98164.81;;;6.61;100.00
2681;BME280;1350;42.134;24.708;2024-01-07T00:05:26;98143.97;;;6.72;100.00
2681;BME280;1350;42.134;24.708;2024-01-07T00:07:53;98126.22;;;6.90;100.00
2681;BME280;1350;42.134;24.708;2024-01-07T00:10:20;98122.91;;;7.01;100.00
2681;BME280;1350;42.134;24.708;2024-01-07T00:12:47;98125.56;;;7.01;100.00
2681;BME280;1350;42.134;24.708;2024-01-07T00:15:15;98070.81;;;6.92;100.00
2681;BME280;1350;42.134;24.708;2024-01-07T00:17:44;98043.31;;;6.81;100.00
2681;BME280;1350;42.134;24.708;2024-01-07T00:20:11;98040.69;;;6.81;100.00
2681;BME280;1350;42.134;24.708;2024-01-07T00:22:38;98039.38;;;6.74;100.00
2681;BME280;1350;42.134;24.708;2024-01-07T00:25:05;98078.81;;;6.90;100.00
2681;BME280;1350;42.134;24.708;2024-01-07T00:27:32;98065.06;;;6.85;100.00
2681;BME280;1350;42.134;24.708;2024-01-07T00:29:59;98058.09;;;6.84;100.00
2681;BME280;1350;42.134;24.708;2024-01-07T00:32:26;98071.91;;;7.02;100.00
2681;BME280;1350;42.134;24.708;2024-01-07T00:34:54;98064.88;;;7.02;100.00
2681;BME280;1350;42.134;24.708;2024-01-07T00:37:21;98051.69;;;7.02;100.00
2681;BME280;1350;42.134;24.708;2024-01-07T00:39:48;98031.06;;;7.09;100.00
2681;BME280;1350;42.134;24.708;2024-01-07T00:42:15;98036.13;;;7.26;100.00
2681;BME280;1350;42.134;24.708;2024-01-07T00:44:42;98032.34;;;7.30;100.00
2681;BME280;1350;42.134;24.708;2024-01-07T00:47:09;98021.50;;;7.34;100.00
2681;BME280;1350;42.134;24.708;2024-01-07T00:49:36;98035.25;;;7.39;100.00
2681;BME280;1350;42.134;24.708;2024-01-07T00:52:06;98004.28;;;7.55;100.00
2681;BME280;1350;42.134;24.708;2024-01-07T00:54:34;97995.91;;;7.75;100.00
2681;BME280;1350;42.134;24.708;2024-01-07T00:57:01;97992.28;;;7.64;100.00
2681;BME280;1350;42.134;24.708;2024-01-07T00:59:28;98005.84;;;7.84;100.00
2681;BME280;1350;42.134;24.708;2024-01-07T01:01:55;97999.53;;;7.87;100.00
2681;BME280;1350;42.134;24.708;2024-01-07T01:04:22;97995.81;;;7.89;100.00
2681;BME280;1350;42.134;24.708;2024-01-07T01:06:49;97986.38;;;7.99;100.00
2681;BME280;1350;42.134;24.708;2024-01-07T01:09:17;97945.38;;;7.81;100.00
2681;BME280;1350;42.134;24.708;2024-01-07T01:11:44;97931.91;;;7.47;100.00
2681;BME280;1350;42.134;24.708;2024-01-07T01:14:11;97890.38;;;7.63;100.00
2681;BME280;1350;42.134;24.708;2024-01-07T01:16:38;97882.69;;;7.85;100.00
2681;BME280;1350;42.134;24.708;2024-01-07T01:19:05;97888.06;;;7.83;100.00
2681;BME280;1350;42.134;24.708;2024-01-07T01:21:32;97874.34;;;7.66;100.00
2681;BME280;1350;42.134;24.708;2024-01-07T01:23:59;97910.00;;;7.71;100.00
2681;BME280;1350;42.134;24.708;2024-01-07T01:26:27;97890.16;;;7.66;100.00
2681;BME280;1350;42.134;24.708;2024-01-07T01:28:54;97883.84;;;7.56;100.00
2681;BME280;1350;42.134;24.708;2024-01-07T01:31:21;97880.78;;;7.62;100.00
2681;BME280;1350;42.134;24.708;2024-01-07T01:33:48;97890.78;;;7.57;100.00
2681;BME280;1350;42.134;24.708;2024-01-07T01:36:15;97840.06;;;7.78;100.00
2681;BME280;1350;42.134;24.708;2024-01-07T01:38:42;97826.75;;;7.92;100.00
2681;BME280;1350;42.134;24.708;2024-01-07T01:41:09;97819.16;;;7.88;100.00
2681;BME280;1350;42.134;24.708;2024-01-07T01:43:38;97804.09;;;7.65;100.00
2681;BME280;1350;42.134;24.708;2024-01-07T01:46:05;97798.06;;;7.63;100.00
2681;BME280;1350;42.134;24.708;2024-01-07T01:48:32;97797.44;;;7.72;100.00
2681;BME280;1350;42.134;24.708;2024-01-07T01:51:00;97760.03;;;8.03;100.00
2681;BME280;1350;42.134;24.708;2024-01-07T01:53:26;97772.50;;;8.01;100.00
2681;BME280;1350;42.134;24.708;2024-01-07T01:55:55;97775.09;;;8.13;100.00
2681;BME280;1350;42.134;24.708;2024-01-07T01:58:24;97779.66;;;8.24;100.00
2681;BME280;1350;42.134;24.708;2024-01-07T02:01:10;97777.63;;;8.15;100.00
2681;BME280;1350;42.134;24.708;2024-01-07T02:03:37;97776.91;;;8.13;100.00
2681;BME280;1350;42.134;24.708;2024-01-07T02:06:05;97756.25;;;7.94;100.00
2681;BME280;1350;42.134;24.708;2024-01-07T02:08:32;97731.78;;;7.92;100.00
2681;BME280;1350;42.134;24.708;2024-01-07T02:11:14;97729.13;;;7.92;100.00
2681;BME280;1350;42.134;24.708;2024-01-07T02:13:41;97744.75;;;7.95;100.00
2681;BME280;1350;42.134;24.708;2024-01-07T02:16:08;97741.22;;;8.07;100.00
2681;BME280;1350;42.134;24.708;2024-01-07T02:18:36;97736.78;;;8.08;100.00
2681;BME280;1350;42.134;24.708;2024-01-07T02:21:04;97739.66;;;8.05;100.00
2681;BME280;1350;42.134;24.708;2024-01-07T02:23:31;97720.09;;;8.07;100.00
2681;BME280;1350;42.134;24.708;2024-01-07T02:25:59;97726.03;;;8.11;100.00
2681;BME280;1350;42.134;24.708;2024-01-07T02:28:26;97728.66;;;8.11;100.00
2681;BME280;1350;42.134;24.708;2024-01-07T02:30:53;97701.06;;;8.15;100.00
2681;BME280;1350;42.134;24.708;2024-01-07T02:33:20;97693.34;;;8.01;100.00
2681;BME280;1350;42.134;24.708;2024-01-07T02:35:48;97681.25;;;8.09;100.00
2681;BME280;1350;42.134;24.708;2024-01-07T02:38:15;97669.22;;;8.41;100.00
2681;BME280;1350;42.134;24.708;2024-01-07T02:40:42;97644.75;;;8.50;100.00
2681;BME280;1350;42.134;24.708;2024-01-07T02:43:10;97638.66;;;8.61;100.00
2681;BME280;1350;42.134;24.708;2024-01-07T02:45:37;97642.69;;;8.78;100.00
2681;BME280;1350;42.134;24.708;2024-01-07T02:48:04;97641.94;;;8.76;100.00
2681;BME280;1350;42.134;24.708;2024-01-07T02:50:32;97658.53;;;8.78;100.00
2681;BME280;1350;42.134;24.708;2024-01-07T02:52:59;97650.16;;;8.84;100.00
2681;BME280;1350;42.134;24.708;2024-01-07T02:55:26;97661.69;;;8.94;100.00
2681;BME280;1350;42.134;24.708;2024-01-07T02:57:52;97678.09;;;8.75;100.00
2681;BME280;1350;42.134;24.708;2024-01-07T03:00:21;97678.25;;;8.85;100.00
2681;BME280;1350;42.134;24.708;2024-01-07T03:02:48;97662.91;;;9.01;100.00
2681;BME280;1350;42.134;24.708;2024-01-07T03:05:15;97674.69;;;9.08;100.00
2681;BME280;1350;42.134;24.708;2024-01-07T03:07:42;97706.19;;;9.11;100.00
2681;BME280;1350;42.134;24.708;2024-01-07T03:10:09;97709.63;;;9.00;100.00
2681;BME280;1350;42.134;24.708;2024-01-07T03:12:36;97691.38;;;8.97;100.00
2681;BME280;1350;42.134;24.708;2024-01-07T03:15:04;97686.75;;;8.77;100.00
2681;BME280;1350;42.134;24.708;2024-01-07T03:17:32;97698.97;;;9.13;100.00
2681;BME280;1350;42.134;24.708;2024-01-07T03:19:58;97671.22;;;9.18;100.00
2681;BME280;1350;42.134;24.708;2024-01-07T03:22:25;97658.25;;;9.37;100.00
2681;BME280;1350;42.134;24.708;2024-01-07T03:24:52;97679.06;;;9.42;100.00
2681;BME280;1350;42.134;24.708;2024-01-07T03:27:19;97684.72;;;9.48;100.00
2681;BME280;1350;42.134;24.708;2024-01-07T03:29:46;97669.22;;;9.44;100.00
2681;BME280;1350;42.134;24.708;2024-01-07T03:32:13;97673.25;;;9.26;100.00
2681;BME280;1350;42.134;24.708;2024-01-07T03:34:41;97683.63;;;9.18;100.00
2681;BME280;1350;42.134;24.708;2024-01-07T03:37:08;97687.63;;;9.00;100.00
2681;BME280;1350;42.134;24.708;2024-01-07T03:39:35;97670.81;;;8.90;100.00
2681;BME280;1350;42.134;24.708;2024-01-07T03:42:02;97675.69;;;9.18;100.00
2681;BME280;1350;42.134;24.708;2024-01-07T03:44:31;97670.50;;;9.16;100.00
2681;BME280;1350;42.134;24.708;2024-01-07T03:46:58;97669.69;;;9.27;100.00
2681;BME280;1350;42.134;24.708;2024-01-07T03:49:25;97655.72;;;9.25;100.00
2681;BME280;1350;42.134;24.708;2024-01-07T03:51:54;97654.16;;;9.22;100.00
2681;BME280;1350;42.134;24.708;2024-01-07T03:54:20;97652.69;;;9.07;100.00
2681;BME280;1350;42.134;24.708;2024-01-07T03:56:47;97647.75;;;9.03;100.00
2681;BME280;1350;42.134;24.708;2024-01-07T03:59:14;97655.28;;;8.74;100.00
2681;BME280;1350;42.134;24.708;2024-01-07T04:01:42;97659.47;;;8.66;100.00
2681;BME280;1350;42.134;24.708;2024-01-07T04:04:09;97666.84;;;8.49;100.00
2681;BME280;1350;42.134;24.708;2024-01-07T04:06:35;97645.44;;;8.41;100.00
2681;BME280;1350;42.134;24.708;2024-01-07T04:09:04;97626.31;;;8.62;100.00
2681;BME280;1350;42.134;24.708;2024-01-07T04:11:31;97597.94;;;8.52;100.00
2681;BME280;1350;42.134;24.708;2024-01-07T04:13:58;97582.41;;;8.94;100.00
2681;BME280;1350;42.134;24.708;2024-01-07T04:16:25;97582.28;;;8.95;100.00
2681;BME280;1350;42.134;24.708;2024-01-07T04:18:52;97577.13;;;9.05;100.00
2681;BME280;1350;42.134;24.708;2024-01-07T04:21:19;97592.97;;;9.05;100.00
2681;BME280;1350;42.134;24.708;2024-01-07T04:23:46;97620.41;;;9.15;100.00
2681;BME280;1350;42.134;24.708;2024-01-07T04:26:15;97617.25;;;9.32;100.00
2681;BME280;1350;42.134;24.708;2024-01-07T04:28:42;97605.72;;;9.22;100.00
2681;BME280;1350;42.134;24.708;2024-01-07T04:31:09;97607.28;;;8.91;100.00
2681;BME280;1350;42.134;24.708;2024-01-07T04:33:36;97591.41;;;8.80;100.00
2681;BME280;1350;42.134;24.708;2024-01-07T04:36:04;97601.38;;;8.99;100.00
2681;BME280;1350;42.134;24.708;2024-01-07T04:38:31;97612.81;;;9.21;100.00
2681;BME280;1350;42.134;24.708;2024-01-07T04:40:57;97630.69;;;8.85;100.00
2681;BME280;1350;42.134;24.708;2024-01-07T04:43:26;97646.81;;;9.04;100.00
2681;BME280;1350;42.134;24.708;2024-01-07T04:45:53;97638.72;;;8.83;100.00
2681;BME280;1350;42.134;24.708;2024-01-07T04:48:20;97591.91;;;8.85;100.00
2681;BME280;1350;42.134;24.708;2024-01-07T04:50:47;97600.63;;;8.86;100.00
2681;BME280;1350;42.134;24.708;2024-01-07T04:53:14;97614.13;;;9.05;100.00
2681;BME280;1350;42.134;24.708;2024-01-07T04:55:41;97588.06;;;9.00;100.00
2681;BME280;1350;42.134;24.708;2024-01-07T04:58:08;97574.34;;;8.84;100.00
2681;BME280;1350;42.134;24.708;2024-01-07T05:00:36;97553.94;;;8.97;100.00
2681;BME280;1350;42.134;24.708;2024-01-07T05:03:03;97568.47;;;9.25;100.00
2681;BME280;1350;42.134;24.708;2024-01-07T05:05:31;97595.63;;;9.27;100.00
2681;BME280;1350;42.134;24.708;2024-01-07T05:07:58;97594.31;;;9.21;100.00
2681;BME280;1350;42.134;24.708;2024-01-07T05:10:26;97586.97;;;9.25;100.00
2681;BME280;1350;42.134;24.708;2024-01-07T05:12:53;97585.06;;;9.38;100.00
2681;BME280;1350;42.134;24.708;2024-01-07T05:15:20;97585.16;;;9.47;100.00
2681;BME280;1350;42.134;24.708;2024-01-07T05:17:48;97577.56;;;9.54;100.00
2681;BME280;1350;42.134;24.708;2024-01-07T05:20:15;97589.59;;;9.58;100.00
2681;BME280;1350;42.134;24.708;2024-01-07T05:22:42;97594.53;;;9.29;100.00
2681;BME280;1350;42.134;24.708;2024-01-07T05:25:09;97592.88;;;9.17;100.00
2681;BME280;1350;42.134;24.708;2024-01-07T05:27:36;97589.38;;;9.06;100.00
2681;BME280;1350;42.134;24.708;2024-01-07T05:30:04;97577.75;;;9.19;100.00
2681;BME280;1350;42.134;24.708;2024-01-07T05:32:32;97555.63;;;8.87;100.00
2681;BME280;1350;42.134;24.708;2024-01-07T05:35:01;97567.41;;;9.05;100.00
2681;BME280;1350;42.134;24.708;2024-01-07T05:37:28;97561.28;;;9.16;100.00
2681;BME280;1350;42.134;24.708;2024-01-07T05:39:54;97551.00;;;9.44;100.00
2681;BME280;1350;42.134;24.708;2024-01-07T05:42:21;97563.16;;;9.58;100.00
2681;BME280;1350;42.134;24.708;2024-01-07T05:44:48;97570.84;;;9.50;100.00
2681;BME280;1350;42.134;24.708;2024-01-07T05:47:15;97582.53;;;9.36;100.00
2681;BME280;1350;42.134;24.708;2024-01-07T05:49:42;97597.56;;;9.36;100.00
2681;BME280;1350;42.134;24.708;2024-01-07T05:52:11;97616.50;;;8.86;100.00
2681;BME280;1350;42.134;24.708;2024-01-07T05:54:38;97622.19;;;8.46;100.00
2681;BME280;1350;42.134;24.708;2024-01-07T05:57:05;97603.38;;;8.62;100.00
2681;BME280;1350;42.134;24.708;2024-01-07T05:59:32;97595.53;;;8.49;100.00
2681;BME280;1350;42.134;24.708;2024-01-07T06:01:59;97594.03;;;8.80;100.00
2681;BME280;1350;42.134;24.708;2024-01-07T06:04:26;97592.94;;;8.83;100.00
2681;BME280;1350;42.134;24.708;2024-01-07T06:06:53;97573.03;;;8.90;100.00
2681;BME280;1350;42.134;24.708;2024-01-07T06:09:21;97557.78;;;8.82;100.00
2681;BME280;1350;42.134;24.708;2024-01-07T06:11:48;97537.13;;;8.87;100.00
2681;BME280;1350;42.134;24.708;2024-01-07T06:14:15;97545.28;;;9.06;100.00
2681;BME280;1350;42.134;24.708;2024-01-07T06:16:42;97552.84;;;9.11;100.00
2681;BME280;1350;42.134;24.708;2024-01-07T06:19:09;97575.22;;;9.18;100.00
2681;BME280;1350;42.134;24.708;2024-01-07T06:21:36;97583.34;;;9.48;100.00
2681;BME280;1350;42.134;24.708;2024-01-07T06:24:03;97585.38;;;9.44;100.00
2681;BME280;1350;42.134;24.708;2024-01-07T06:26:32;97592.00;;;9.50;100.00
2681;BME280;1350;42.134;24.708;2024-01-07T06:28:59;97579.31;;;9.75;100.00
2681;BME280;1350;42.134;24.708;2024-01-07T06:31:26;97582.84;;;10.07;100.00
2681;BME280;1350;42.134;24.708;2024-01-07T06:33:53;97580.84;;;10.73;100.00
2681;BME280;1350;42.134;24.708;2024-01-07T06:36:21;97569.34;;;11.13;100.00
2681;BME280;1350;42.134;24.708;2024-01-07T06:38:48;97565.31;;;12.17;100.00
2681;BME280;1350;42.134;24.708;2024-01-07T06:41:15;97556.97;;;12.87;100.00
2681;BME280;1350;42.134;24.708;2024-01-07T06:43:43;97560.06;;;13.65;100.00
2681;BME280;1350;42.134;24.708;2024-01-07T06:46:10;97566.94;;;13.85;100.00
2681;BME280;1350;42.134;24.708;2024-01-07T06:48:38;97583.09;;;14.28;100.00
2681;BME280;1350;42.134;24.708;2024-01-07T06:51:05;97581.66;;;14.94;100.00
2681;BME280;1350;42.134;24.708;2024-01-07T06:53:32;97580.22;;;15.34;100.00
2681;BME280;1350;42.134;24.708;2024-01-07T06:55:59;97598.13;;;15.75;100.00
2681;BME280;1350;42.134;24.708;2024-01-07T06:58:26;97609.84;;;16.23;100.00
2681;BME280;1350;42.134;24.708;2024-01-07T07:00:55;97625.16;;;16.87;100.00
2681;BME280;1350;42.134;24.708;2024-01-07T07:03:22;97640.56;;;16.93;96.40
2681;BME280;1350;42.134;24.708;2024-01-07T07:05:48;97648.50;;;15.95;100.00
2681;BME280;1350;42.134;24.708;2024-01-07T07:08:16;97637.81;;;14.93;100.00
2681;BME280;1350;42.134;24.708;2024-01-07T07:10:43;97637.16;;;15.16;100.00
2681;BME280;1350;42.134;24.708;2024-01-07T07:13:10;97641.97;;;15.13;100.00
2681;BME280;1350;42.134;24.708;2024-01-07T07:15:37;97618.53;;;15.24;100.00
2681;BME280;1350;42.134;24.708;2024-01-07T07:18:06;97619.28;;;14.48;100.00
2681;BME280;1350;42.134;24.708;2024-01-07T07:20:33;97623.34;;;13.98;100.00
2681;BME280;1350;42.134;24.708;2024-01-07T07:23:00;97619.06;;;13.88;100.00
2681;BME280;1350;42.134;24.708;2024-01-07T07:25:27;97626.41;;;14.83;100.00
2681;BME280;1350;42.134;24.708;2024-01-07T07:27:54;97647.59;;;15.79;100.00
2681;BME280;1350;42.134;24.708;2024-01-07T07:30:21;97642.38;;;16.60;100.00
2681;BME280;1350;42.134;24.708;2024-01-07T07:32:48;97632.50;;;16.69;98.74
2681;BME280;1350;42.134;24.708;2024-01-07T07:35:17;97623.00;;;16.66;97.68
2681;BME280;1350;42.134;24.708;2024-01-07T07:37:47;97638.75;;;16.20;98.43
2681;BME280;1350;42.134;24.708;2024-01-07T07:40:14;97640.88;;;15.41;100.00
2681;BME280;1350;42.134;24.708;2024-01-07T07:42:41;97630.19;;;14.98;100.00
2681;BME280;1350;42.134;24.708;2024-01-07T07:45:09;97634.34;;;15.18;100.00
2681;BME280;1350;42.134;24.708;2024-01-07T07:47:36;97645.00;;;14.92;100.00
2681;BME280;1350;42.134;24.708;2024-01-07T07:50:07;97650.03;;;14.25;100.00
2681;BME280;1350;42.134;24.708;2024-01-07T07:52:36;97639.75;;;14.30;100.00
2681;BME280;1350;42.134;24.708;2024-01-07T07:55:03;97630.09;;;14.02;100.00
2681;BME280;1350;42.134;24.708;2024-01-07T07:57:32;97623.31;;;13.53;100.00
2681;BME280;1350;42.134;24.708;2024-01-07T07:59:58;97626.84;;;13.44;100.00
2681;BME280;1350;42.134;24.708;2024-01-07T08:02:25;97625.94;;;12.98;100.00
2681;BME280;1350;42.134;24.708;2024-01-07T08:04:52;97630.56;;;13.15;100.00
2681;BME280;1350;42.134;24.708;2024-01-07T08:07:19;97626.88;;;13.35;100.00
2681;BME280;1350;42.134;24.708;2024-01-07T08:09:47;97627.44;;;13.29;100.00
2681;BME280;1350;42.134;24.708;2024-01-07T08:12:14;97619.06;;;13.24;100.00
2681;BME280;1350;42.134;24.708;2024-01-07T08:14:41;97616.50;;;13.41;100.00
2681;BME280;1350;42.134;24.708;2024-01-07T08:17:08;97618.72;;;13.46;100.00
2681;BME280;1350;42.134;24.708;2024-01-07T08:19:36;97627.75;;;13.63;100.00
2681;BME280;1350;42.134;24.708;2024-01-07T08:22:03;97627.38;;;12.83;100.00
2681;BME280;1350;42.134;24.708;2024-01-07T08:24:30;97625.13;;;12.97;100.00
2681;BME280;1350;42.134;24.708;2024-01-07T08:26:58;97629.22;;;13.01;100.00
2681;BME280;1350;42.134;24.708;2024-01-07T08:29:25;97622.34;;;12.80;100.00
2681;BME280;1350;42.134;24.708;2024-01-07T08:31:55;97624.88;;;12.72;100.00
2681;BME280;1350;42.134;24.708;2024-01-07T08:34:22;97634.25;;;13.04;100.00
2681;BME280;1350;42.134;24.708;2024-01-07T08:36:49;97630.44;;;13.07;100.00
2681;BME280;1350;42.134;24.708;2024-01-07T08:39:16;97644.88;;;13.14;100.00
2681;BME280;1350;42.134;24.708;2024-01-07T08:41:43;97638.03;;;13.11;100.00
2681;BME280;1350;42.134;24.708;2024-01-07T08:44:12;97634.59;;;13.28;100.00
2681;BME280;1350;42.134;24.708;2024-01-07T08:46:39;97630.00;;;13.21;100.00
2681;BME280;1350;42.134;24.708;2024-01-07T08:49:06;97631.00;;;13.56;100.00
2681;BME280;1350;42.134;24.708;2024-01-07T08:51:33;97639.00;;;13.47;100.00
2681;BME280;1350;42.134;24.708;2024-01-07T08:54:00;97631.41;;;12.96;100.00
2681;BME280;1350;42.134;24.708;2024-01-07T08:56:27;97630.88;;;12.93;100.00
2681;BME280;1350;42.134;24.708;2024-01-07T08:58:54;97626.00;;;12.88;100.00
2681;BME280;1350;42.134;24.708;2024-01-07T09:01:22;97629.69;;;13.24;100.00
2681;BME280;1350;42.134;24.708;2024-01-07T09:03:50;97623.13;;;13.28;100.00
2681;BME280;1350;42.134;24.708;2024-01-07T09:06:17;97618.81;;;12.89;100.00
2681;BME280;1350;42.134;24.708;2024-01-07T09:08:49;97624.84;;;12.91;100.00
2681;BME280;1350;42.134;24.708;2024-01-07T09:11:19;97622.06;;;12.73;100.00
2681;BME280;1350;42.134;24.708;2024-01-07T09:13:46;97617.31;;;12.58;100.00
2681;BME280;1350;42.134;24.708;2024-01-07T09:16:14;97615.25;;;12.42;100.00
2681;BME280;1350;42.134;24.708;2024-01-07T09:18:42;97613.94;;;12.08;100.00
2681;BME280;1350;42.134;24.708;2024-01-07T09:21:10;97598.72;;;12.01;100.00
2681;BME280;1350;42.134;24.708;2024-01-07T09:23:37;97582.22;;;12.07;100.00
2681;BME280;1350;42.134;24.708;2024-01-07T09:26:07;97580.66;;;12.14;100.00
2681;BME280;1350;42.134;24.708;2024-01-07T09:28:34;97581.91;;;12.00;100.00
2681;BME280;1350;42.134;24.708;2024-01-07T09:31:01;97584.88;;;12.35;100.00
2681;BME280;1350;42.134;24.708;2024-01-07T09:33:28;97585.28;;;12.59;100.00
2681;BME280;1350;42.134;24.708;2024-01-07T09:35:57;97591.56;;;12.68;100.00
2681;BME280;1350;42.134;24.708;2024-01-07T09:38:24;97590.19;;;12.45;100.00
2681;BME280;1350;42.134;24.708;2024-01-07T09:40:51;97590.47;;;12.61;100.00
2681;BME280;1350;42.134;24.708;2024-01-07T09:43:21;97584.72;;;12.65;100.00
2681;BME280;1350;42.134;24.708;2024-01-07T09:45:49;97583.88;;;12.84;100.00
2681;BME280;1350;42.134;24.708;2024-01-07T09:48:17;97586.41;;;12.47;100.00
2681;BME280;1350;42.134;24.708;2024-01-07T09:50:44;97573.13;;;12.28;100.00
2681;BME280;1350;42.134;24.708;2024-01-07T09:53:15;97570.75;;;12.44;100.00
2681;BME280;1350;42.134;24.708;2024-01-07T09:55:51;97564.59;;;12.25;100.00
2681;BME280;1350;42.134;24.708;2024-01-07T09:58:19;97564.16;;;12.20;100.00
2681;BME280;1350;42.134;24.708;2024-01-07T10:00:47;97567.66;;;12.58;100.00
2681;BME280;1350;42.134;24.708;2024-01-07T10:03:18;97564.69;;;12.80;100.00
2681;BME280;1350;42.134;24.708;2024-01-07T10:06:39;97552.91;;;13.02;100.00
2681;BME280;1350;42.134;24.708;2024-01-07T10:12:47;97536.03;;;13.47;100.00
2681;BME280;1350;42.134;24.708;2024-01-07T10:15:14;97533.50;;;13.73;100.00
2681;BME280;1350;42.134;24.708;2024-01-07T10:17:45;97538.66;;;13.75;100.00
2681;BME280;1350;42.134;24.708;2024-01-07T10:20:26;97536.69;;;13.59;100.00
2681;BME280;1350;42.134;24.708;2024-01-07T10:23:07;97525.94;;;13.51;100.00
2681;BME280;1350;42.134;24.708;2024-01-07T10:25:38;97514.78;;;13.38;100.00
2681;BME280;1350;42.134;24.708;2024-01-07T10:28:21;97516.69;;;13.73;100.00
2681;BME280;1350;42.134;24.708;2024-01-07T10:30:49;97508.69;;;13.90;100.00
2681;BME280;1350;42.134;24.708;2024-01-07T10:33:17;97507.41;;;14.12;100.00
2681;BME280;1350;42.134;24.708;2024-01-07T10:35:48;97515.28;;;14.31;100.00
2681;BME280;1350;42.134;24.708;2024-01-07T10:38:18;97506.91;;;14.43;100.00
2681;BME280;1350;42.134;24.708;2024-01-07T10:40:47;97502.34;;;14.61;100.00
2681;BME280;1350;42.134;24.708;2024-01-07T10:43:17;97504.50;;;14.58;100.00
2681;BME280;1350;42.134;24.708;2024-01-07T10:45:47;97500.34;;;14.20;100.00
2681;BME280;1350;42.134;24.708;2024-01-07T10:48:17;97487.28;;;14.27;100.00
2681;BME280;1350;42.134;24.708;2024-01-07T10:50:45;97481.91;;;14.95;100.00
2681;BME280;1350;42.134;24.708;2024-01-07T10:53:18;97481.25;;;15.77;100.00
2681;BME280;1350;42.134;24.708;2024-01-07T10:55:52;97483.84;;;16.50;100.00
2681;BME280;1350;42.134;24.708;2024-01-07T10:58:21;97488.59;;;17.03;100.00
2681;BME280;1350;42.134;24.708;2024-01-07T11:00:50;97480.50;;;17.66;100.00
2681;BME280;1350;42.134;24.708;2024-01-07T11:03:20;97479.72;;;18.33;94.78
2681;BME280;1350;42.134;24.708;2024-01-07T11:05:56;97481.09;;;18.74;86.96
2681;BME280;1350;42.134;24.708;2024-01-07T11:08:28;97482.16;;;19.46;81.10
2681;BME280;1350;42.134;24.708;2024-01-07T11:11:02;97482.34;;;20.30;74.89
2681;BME280;1350;42.134;24.708;2024-01-07T11:13:34;97478.00;;;20.78;69.15
2681;BME280;1350;42.134;24.708;2024-01-07T11:16:05;97473.59;;;21.25;66.34
2681;BME280;1350;42.134;24.708;2024-01-07T11:18:45;97465.72;;;21.64;63.23
2681;BME280;1350;42.134;24.708;2024-01-07T11:21:20;97471.00;;;21.38;61.21
2681;BME280;1350;42.134;24.708;2024-01-07T11:23:50;97476.28;;;20.70;58.09
2681;BME280;1350;42.134;24.708;2024-01-07T11:26:18;97480.81;;;20.91;59.43
2681;BME280;1350;42.134;24.708;2024-01-07T11:28:48;97472.03;;;20.82;56.53
2681;BME280;1350;42.134;24.708;2024-01-07T11:31:18;97473.56;;;21.19;54.82
2681;BME280;1350;42.134;24.708;2024-01-07T11:33:46;97462.22;;;21.30;55.28
2681;BME280;1350;42.134;24.708;2024-01-07T11:36:14;97468.34;;;21.11;60.66
2681;BME280;1350;42.134;24.708;2024-01-07T11:38:42;97465.03;;;20.88;62.29
2681;BME280;1350;42.134;24.708;2024-01-07T11:41:11;97466.03;;;20.80;64.16
2681;BME280;1350;42.134;24.708;2024-01-07T11:43:51;97471.06;;;20.41;65.15
2681;BME280;1350;42.134;24.708;2024-01-07T11:46:21;97463.28;;;20.10;66.79
2681;BME280;1350;42.134;24.708;2024-01-07T11:48:48;97449.38;;;20.07;68.12
2681;BME280;1350;42.134;24.708;2024-01-07T11:51:15;97455.81;;;20.27;66.40
2681;BME280;1350;42.134;24.708;2024-01-07T11:53:46;97460.41;;;20.12;64.96
2681;BME280;1350;42.134;24.708;2024-01-07T11:56:14;97465.63;;;20.14;64.26
2681;BME280;1350;42.134;24.708;2024-01-07T11:58:43;97464.34;;;19.95;65.29
2681;BME280;1350;42.134;24.708;2024-01-07T12:01:10;97460.38;;;19.91;65.58
2681;BME280;1350;42.134;24.708;2024-01-07T12:03:38;97453.00;;;19.78;64.15
2681;BME280;1350;42.134;24.708;2024-01-07T12:06:06;97452.59;;;19.46;65.69
2681;BME280;1350;42.134;24.708;2024-01-07T12:08:33;97448.59;;;19.13;66.93
2681;BME280;1350;42.134;24.708;2024-01-07T12:11:04;97443.50;;;18.89;67.22
2681;BME280;1350;42.134;24.708;2024-01-07T12:13:32;97448.09;;;18.66;69.01
2681;BME280;1350;42.134;24.708;2024-01-07T12:16:00;97455.03;;;18.60;72.03
2681;BME280;1350;42.134;24.708;2024-01-07T12:18:27;97454.00;;;18.47;74.62
2681;BME280;1350;42.134;24.708;2024-01-07T12:20:59;97449.22;;;18.34;75.59
2681;BME280;1350;42.134;24.708;2024-01-07T12:23:26;97456.34;;;18.19;76.12
2681;BME280;1350;42.134;24.708;2024-01-07T12:25:54;97451.75;;;17.82;78.06
2681;BME280;1350;42.134;24.708;2024-01-07T12:28:21;97449.53;;;17.63;80.50
2681;BME280;1350;42.134;24.708;2024-01-07T12:30:50;97448.16;;;17.67;81.75
2681;BME280;1350;42.134;24.708;2024-01-07T12:33:17;97455.97;;;17.54;82.37
2681;BME280;1350;42.134;24.708;2024-01-07T12:35:46;97453.63;;;17.43;82.35
2681;BME280;1350;42.134;24.708;2024-01-07T12:38:23;97454.16;;;17.39;81.74
2681;BME280;1350;42.134;24.708;2024-01-07T12:40:50;97441.81;;;17.30;81.73
2681;BME280;1350;42.134;24.708;2024-01-07T12:43:17;97456.50;;;16.95;84.54
2681;BME280;1350;42.134;24.708;2024-01-07T12:45:44;97456.66;;;16.85;87.17
2681;BME280;1350;42.134;24.708;2024-01-07T12:48:12;97449.91;;;16.51;90.61
2681;BME280;1350;42.134;24.708;2024-01-07T12:50:39;97446.47;;;16.89;90.63
2681;BME280;1350;42.134;24.708;2024-01-07T12:53:06;97445.06;;;17.09;88.86
2681;BME280;1350;42.134;24.708;2024-01-07T12:55:37;97451.78;;;17.05;88.42
2681;BME280;1350;42.134;24.708;2024-01-07T12:58:07;97446.44;;;17.05;88.35
2681;BME280;1350;42.134;24.708;2024-01-07T13:00:34;97448.09;;;16.98;90.14
2681;BME280;1350;42.134;24.708;2024-01-07T13:03:01;97454.66;;;16.96;88.81
2681;BME280;1350;42.134;24.708;2024-01-07T13:05:29;97446.19;;;16.68;88.90
2681;BME280;1350;42.134;24.708;2024-01-07T13:07:56;97450.53;;;16.77;88.70
2681;BME280;1350;42.134;24.708;2024-01-07T13:10:23;97447.31;;;16.81;89.31
2681;BME280;1350;42.134;24.708;2024-01-07T13:12:54;97450.97;;;16.88;89.04
2681;BME280;1350;42.134;24.708;2024-01-07T13:15:21;97452.50;;;16.91;89.62